sensor_id;sensor_type;location;lat;lon;timestamp;P1;durP1;ratioP1;P2;durP2;ratioP2
5085;SDS011;4715;51.660;7.082;2022-10-18T00:00:57;1.80;;;1.70;;
5085;SDS011;4715;51.660;7.082;2022-10-18T00:03:19;1.77;;;1.67;;
5085;SDS011;4715;51.660;7.082;2022-10-18T00:05:41;2.73;;;1.90;;
5085;SDS011;4715;51.660;7.082;2022-10-18T00:08:03;1.80;;;1.70;;
5085;SDS011;4715;51.660;7.082;2022-10-18T00:10:25;2.43;;;1.83;;
5085;SDS011;4715;51.660;7.082;2022-10-18T00:12:47;1.70;;;1.60;;
5085;SDS011;4715;51.660;7.082;2022-10-18T00:15:09;1.70;;;1.60;;
5085;SDS011;4715;51.660;7.082;2022-10-18T00:17:34;1.50;;;1.40;;
5085;SDS011;4715;51.660;7.082;2022-10-18T00:19:56;1.60;;;1.50;;
5085;SDS011;4715;51.660;7.082;2022-10-18T00:22:17;1.40;;;1.30;;
5085;SDS011;4715;51.660;7.082;2022-10-18T00:24:39;1.70;;;1.60;;
5085;SDS011;4715;51.660;7.082;2022-10-18T00:27:01;1.60;;;1.50;;
5085;SDS011;4715;51.660;7.082;2022-10-18T00:29:23;1.67;;;1.57;;
5085;SDS011;4715;51.660;7.082;2022-10-18T00:31:45;1.43;;;1.33;;
5085;SDS011;4715;51.660;7.082;2022-10-18T00:34:09;1.80;;;1.70;;
5085;SDS011;4715;51.660;7.082;2022-10-18T00:36:33;1.40;;;1.30;;
5085;SDS011;4715;51.660;7.082;2022-10-18T00:38:55;1.70;;;1.60;;
5085;SDS011;4715;51.660;7.082;2022-10-18T00:41:18;1.70;;;1.60;;
5085;SDS011;4715;51.660;7.082;2022-10-18T00:43:51;1.83;;;1.73;;
5085;SDS011;4715;51.660;7.082;2022-10-18T00:46:20;2.73;;;1.80;;
5085;SDS011;4715;51.660;7.082;2022-10-18T00:48:42;2.10;;;2.00;;
5085;SDS011;4715;51.660;7.082;2022-10-18T00:51:06;2.07;;;1.50;;
5085;SDS011;4715;51.660;7.082;2022-10-18T00:53:28;1.90;;;1.80;;
5085;SDS011;4715;51.660;7.082;2022-10-18T00:55:50;1.70;;;1.60;;
5085;SDS011;4715;51.660;7.082;2022-10-18T00:58:15;2.07;;;1.97;;
5085;SDS011;4715;51.660;7.082;2022-10-18T01:00:38;1.80;;;1.70;;
5085;SDS011;4715;51.660;7.082;2022-10-18T01:03:00;1.67;;;1.57;;
5085;SDS011;4715;51.660;7.082;2022-10-18T01:05:23;1.50;;;1.40;;
5085;SDS011;4715;51.660;7.082;2022-10-18T01:07:57;1.70;;;1.60;;
5085;SDS011;4715;51.660;7.082;2022-10-18T01:10:36;2.00;;;1.90;;
5085;SDS011;4715;51.660;7.082;2022-10-18T01:13:06;1.47;;;1.40;;
5085;SDS011;4715;51.660;7.082;2022-10-18T01:15:38;1.37;;;1.27;;
5085;SDS011;4715;51.660;7.082;2022-10-18T01:18:07;1.83;;;1.73;;
5085;SDS011;4715;51.660;7.082;2022-10-18T01:20:40;2.33;;;2.13;;
5085;SDS011;4715;51.660;7.082;2022-10-18T01:23:33;2.10;;;2.00;;
5085;SDS011;4715;51.660;7.082;2022-10-18T01:26:32;1.60;;;1.50;;
5085;SDS011;4715;51.660;7.082;2022-10-18T01:29:07;1.70;;;1.60;;
5085;SDS011;4715;51.660;7.082;2022-10-18T01:31:45;1.47;;;1.37;;
5085;SDS011;4715;51.660;7.082;2022-10-18T01:34:10;1.70;;;1.60;;
5085;SDS011;4715;51.660;7.082;2022-10-18T01:36:37;2.90;;;2.20;;
5085;SDS011;4715;51.660;7.082;2022-10-18T01:39:02;2.40;;;1.47;;
5085;SDS011;4715;51.660;7.082;2022-10-18T01:41:27;1.30;;;1.20;;
5085;SDS011;4715;51.660;7.082;2022-10-18T01:43:49;1.40;;;1.30;;
5085;SDS011;4715;51.660;7.082;2022-10-18T01:46:16;1.30;;;1.20;;
5085;SDS011;4715;51.660;7.082;2022-10-18T01:48:43;1.23;;;1.20;;
5085;SDS011;4715;51.660;7.082;2022-10-18T01:51:06;1.60;;;1.50;;
5085;SDS011;4715;51.660;7.082;2022-10-18T01:53:29;1.10;;;1.10;;
5085;SDS011;4715;51.660;7.082;2022-10-18T01:56:00;1.53;;;1.43;;
5085;SDS011;4715;51.660;7.082;2022-10-18T01:58:39;1.60;;;1.30;;
5085;SDS011;4715;51.660;7.082;2022-10-18T02:01:09;1.47;;;1.37;;
5085;SDS011;4715;51.660;7.082;2022-10-18T02:03:36;1.40;;;1.30;;
5085;SDS011;4715;51.660;7.082;2022-10-18T02:06:05;1.60;;;1.50;;
5085;SDS011;4715;51.660;7.082;2022-10-18T02:08:32;1.53;;;1.43;;
5085;SDS011;4715;51.660;7.082;2022-10-18T02:10:59;2.20;;;1.70;;
5085;SDS011;4715;51.660;7.082;2022-10-18T02:13:24;1.60;;;1.50;;
5085;SDS011;4715;51.660;7.082;2022-10-18T02:15:52;1.80;;;1.70;;
5085;SDS011;4715;51.660;7.082;2022-10-18T02:18:19;1.77;;;1.50;;
5085;SDS011;4715;51.660;7.082;2022-10-18T02:20:45;1.50;;;1.40;;
5085;SDS011;4715;51.660;7.082;2022-10-18T02:23:10;1.60;;;1.50;;
5085;SDS011;4715;51.660;7.082;2022-10-18T02:25:35;1.43;;;1.33;;
5085;SDS011;4715;51.660;7.082;2022-10-18T02:27:57;1.47;;;1.37;;
5085;SDS011;4715;51.660;7.082;2022-10-18T02:30:19;1.53;;;1.43;;
5085;SDS011;4715;51.660;7.082;2022-10-18T02:32:47;1.37;;;1.27;;
5085;SDS011;4715;51.660;7.082;2022-10-18T02:35:17;1.70;;;1.60;;
5085;SDS011;4715;51.660;7.082;2022-10-18T02:37:42;1.60;;;1.50;;
5085;SDS011;4715;51.660;7.082;2022-10-18T02:40:08;1.83;;;1.73;;
5085;SDS011;4715;51.660;7.082;2022-10-18T02:42:32;1.30;;;1.30;;
5085;SDS011;4715;51.660;7.082;2022-10-18T02:44:55;1.23;;;1.20;;
5085;SDS011;4715;51.660;7.082;2022-10-18T02:47:17;1.60;;;1.50;;
5085;SDS011;4715;51.660;7.082;2022-10-18T02:49:40;1.57;;;1.47;;
5085;SDS011;4715;51.660;7.082;2022-10-18T02:52:02;1.60;;;1.50;;
5085;SDS011;4715;51.660;7.082;2022-10-18T02:54:24;1.50;;;1.40;;
5085;SDS011;4715;51.660;7.082;2022-10-18T02:56:47;1.57;;;1.47;;
5085;SDS011;4715;51.660;7.082;2022-10-18T02:59:10;2.07;;;1.97;;
5085;SDS011;4715;51.660;7.082;2022-10-18T03:01:33;1.50;;;1.40;;
5085;SDS011;4715;51.660;7.082;2022-10-18T03:03:55;1.30;;;1.30;;
5085;SDS011;4715;51.660;7.082;2022-10-18T03:06:17;2.33;;;2.23;;
5085;SDS011;4715;51.660;7.082;2022-10-18T03:08:39;1.53;;;1.43;;
5085;SDS011;4715;51.660;7.082;2022-10-18T03:11:02;1.60;;;1.50;;
5085;SDS011;4715;51.660;7.082;2022-10-18T03:13:25;1.70;;;1.60;;
5085;SDS011;4715;51.660;7.082;2022-10-18T03:15:47;1.70;;;1.60;;
5085;SDS011;4715;51.660;7.082;2022-10-18T03:18:09;1.57;;;1.47;;
5085;SDS011;4715;51.660;7.082;2022-10-18T03:20:32;1.73;;;1.63;;
5085;SDS011;4715;51.660;7.082;2022-10-18T03:22:54;2.33;;;2.13;;
5085;SDS011;4715;51.660;7.082;2022-10-18T03:25:16;1.70;;;1.60;;
5085;SDS011;4715;51.660;7.082;2022-10-18T03:27:38;2.00;;;1.40;;
5085;SDS011;4715;51.660;7.082;2022-10-18T03:30:03;1.90;;;1.70;;
5085;SDS011;4715;51.660;7.082;2022-10-18T03:32:25;1.70;;;1.60;;
5085;SDS011;4715;51.660;7.082;2022-10-18T03:34:47;1.90;;;1.80;;
5085;SDS011;4715;51.660;7.082;2022-10-18T03:37:10;2.60;;;1.80;;
5085;SDS011;4715;51.660;7.082;2022-10-18T03:39:32;7.10;;;1.77;;
5085;SDS011;4715;51.660;7.082;2022-10-18T03:41:54;2.27;;;2.07;;
5085;SDS011;4715;51.660;7.082;2022-10-18T03:44:16;1.93;;;1.83;;
5085;SDS011;4715;51.660;7.082;2022-10-18T03:46:39;2.10;;;2.00;;
5085;SDS011;4715;51.660;7.082;2022-10-18T03:49:01;2.97;;;2.77;;
5085;SDS011;4715;51.660;7.082;2022-10-18T03:51:23;2.30;;;2.20;;
5085;SDS011;4715;51.660;7.082;2022-10-18T03:53:45;2.30;;;2.10;;
5085;SDS011;4715;51.660;7.082;2022-10-18T03:56:07;2.40;;;2.00;;
5085;SDS011;4715;51.660;7.082;2022-10-18T03:58:31;2.80;;;2.60;;
5085;SDS011;4715;51.660;7.082;2022-10-18T04:00:55;2.40;;;2.20;;
5085;SDS011;4715;51.660;7.082;2022-10-18T04:03:26;2.10;;;2.00;;
5085;SDS011;4715;51.660;7.082;2022-10-18T04:05:48;2.50;;;2.27;;
5085;SDS011;4715;51.660;7.082;2022-10-18T04:08:12;2.40;;;2.30;;
5085;SDS011;4715;51.660;7.082;2022-10-18T04:10:35;2.30;;;2.20;;
5085;SDS011;4715;51.660;7.082;2022-10-18T04:12:58;2.57;;;2.00;;
5085;SDS011;4715;51.660;7.082;2022-10-18T04:15:19;2.50;;;2.30;;
5085;SDS011;4715;51.660;7.082;2022-10-18T04:17:41;3.10;;;2.70;;
5085;SDS011;4715;51.660;7.082;2022-10-18T04:20:05;2.60;;;2.50;;
5085;SDS011;4715;51.660;7.082;2022-10-18T04:22:27;2.50;;;2.40;;
5085;SDS011;4715;51.660;7.082;2022-10-18T04:24:49;2.53;;;2.23;;
5085;SDS011;4715;51.660;7.082;2022-10-18T04:27:12;2.10;;;2.00;;
5085;SDS011;4715;51.660;7.082;2022-10-18T04:29:35;2.37;;;2.27;;
5085;SDS011;4715;51.660;7.082;2022-10-18T04:31:57;2.57;;;2.47;;
5085;SDS011;4715;51.660;7.082;2022-10-18T04:34:19;1.93;;;1.83;;
5085;SDS011;4715;51.660;7.082;2022-10-18T04:36:42;2.60;;;2.00;;
5085;SDS011;4715;51.660;7.082;2022-10-18T04:39:04;2.00;;;1.90;;
5085;SDS011;4715;51.660;7.082;2022-10-18T04:41:26;2.03;;;1.93;;
5085;SDS011;4715;51.660;7.082;2022-10-18T04:43:47;3.70;;;2.60;;
5085;SDS011;4715;51.660;7.082;2022-10-18T04:46:09;2.40;;;2.30;;
5085;SDS011;4715;51.660;7.082;2022-10-18T04:48:34;2.10;;;2.00;;
5085;SDS011;4715;51.660;7.082;2022-10-18T04:50:56;2.73;;;2.13;;
5085;SDS011;4715;51.660;7.082;2022-10-18T04:53:22;2.60;;;2.07;;
5085;SDS011;4715;51.660;7.082;2022-10-18T04:55:43;2.30;;;2.10;;
5085;SDS011;4715;51.660;7.082;2022-10-18T04:58:06;2.80;;;2.60;;
5085;SDS011;4715;51.660;7.082;2022-10-18T05:00:28;2.70;;;2.50;;
5085;SDS011;4715;51.660;7.082;2022-10-18T05:02:52;2.80;;;2.60;;
5085;SDS011;4715;51.660;7.082;2022-10-18T05:05:16;1.90;;;1.80;;
5085;SDS011;4715;51.660;7.082;2022-10-18T05:07:38;2.90;;;2.33;;
5085;SDS011;4715;51.660;7.082;2022-10-18T05:10:09;3.20;;;2.87;;
5085;SDS011;4715;51.660;7.082;2022-10-18T05:12:31;2.90;;;2.70;;
5085;SDS011;4715;51.660;7.082;2022-10-18T05:14:53;2.33;;;2.03;;
5085;SDS011;4715;51.660;7.082;2022-10-18T05:17:15;1.80;;;1.70;;
5085;SDS011;4715;51.660;7.082;2022-10-18T05:19:36;2.13;;;1.90;;
5085;SDS011;4715;51.660;7.082;2022-10-18T05:21:58;2.23;;;2.13;;
5085;SDS011;4715;51.660;7.082;2022-10-18T05:24:20;2.77;;;2.57;;
5085;SDS011;4715;51.660;7.082;2022-10-18T05:26:43;2.60;;;2.30;;
5085;SDS011;4715;51.660;7.082;2022-10-18T05:29:05;2.10;;;2.00;;
5085;SDS011;4715;51.660;7.082;2022-10-18T05:31:27;2.40;;;2.20;;
5085;SDS011;4715;51.660;7.082;2022-10-18T05:33:49;3.43;;;3.07;;
5085;SDS011;4715;51.660;7.082;2022-10-18T05:36:11;2.93;;;2.73;;
5085;SDS011;4715;51.660;7.082;2022-10-18T05:38:33;3.20;;;2.90;;
5085;SDS011;4715;51.660;7.082;2022-10-18T05:40:54;2.50;;;2.33;;
5085;SDS011;4715;51.660;7.082;2022-10-18T05:43:18;2.23;;;2.03;;
5085;SDS011;4715;51.660;7.082;2022-10-18T05:45:41;2.50;;;2.40;;
5085;SDS011;4715;51.660;7.082;2022-10-18T05:48:07;2.53;;;2.43;;
5085;SDS011;4715;51.660;7.082;2022-10-18T05:50:29;2.00;;;1.90;;
5085;SDS011;4715;51.660;7.082;2022-10-18T05:52:54;2.40;;;2.20;;
5085;SDS011;4715;51.660;7.082;2022-10-18T05:55:17;2.57;;;2.37;;
5085;SDS011;4715;51.660;7.082;2022-10-18T05:57:39;2.73;;;2.63;;
5085;SDS011;4715;51.660;7.082;2022-10-18T06:00:02;3.17;;;3.00;;
5085;SDS011;4715;51.660;7.082;2022-10-18T06:02:24;3.43;;;3.23;;
5085;SDS011;4715;51.660;7.082;2022-10-18T06:04:47;3.67;;;3.37;;
5085;SDS011;4715;51.660;7.082;2022-10-18T06:07:08;3.60;;;3.40;;
5085;SDS011;4715;51.660;7.082;2022-10-18T06:09:31;3.30;;;3.00;;
5085;SDS011;4715;51.660;7.082;2022-10-18T06:11:52;3.90;;;3.60;;
5085;SDS011;4715;51.660;7.082;2022-10-18T06:14:16;3.77;;;3.47;;
5085;SDS011;4715;51.660;7.082;2022-10-18T06:16:39;3.50;;;3.03;;
5085;SDS011;4715;51.660;7.082;2022-10-18T06:19:01;3.23;;;3.00;;
5085;SDS011;4715;51.660;7.082;2022-10-18T06:21:24;3.67;;;3.37;;
5085;SDS011;4715;51.660;7.082;2022-10-18T06:23:47;3.13;;;2.90;;
5085;SDS011;4715;51.660;7.082;2022-10-18T06:26:10;2.63;;;2.53;;
5085;SDS011;4715;51.660;7.082;2022-10-18T06:28:32;2.90;;;2.70;;
5085;SDS011;4715;51.660;7.082;2022-10-18T06:30:55;3.47;;;3.10;;
5085;SDS011;4715;51.660;7.082;2022-10-18T06:33:18;3.10;;;2.80;;
5085;SDS011;4715;51.660;7.082;2022-10-18T06:35:40;3.03;;;2.73;;
5085;SDS011;4715;51.660;7.082;2022-10-18T06:38:02;3.90;;;3.50;;
5085;SDS011;4715;51.660;7.082;2022-10-18T06:40:25;3.87;;;3.57;;
5085;SDS011;4715;51.660;7.082;2022-10-18T06:42:47;4.07;;;3.83;;
5085;SDS011;4715;51.660;7.082;2022-10-18T06:45:09;3.23;;;2.97;;
5085;SDS011;4715;51.660;7.082;2022-10-18T06:47:31;4.37;;;3.90;;
5085;SDS011;4715;51.660;7.082;2022-10-18T06:49:54;3.40;;;3.20;;
5085;SDS011;4715;51.660;7.082;2022-10-18T06:52:16;4.00;;;3.60;;
5085;SDS011;4715;51.660;7.082;2022-10-18T06:54:39;3.43;;;3.00;;
5085;SDS011;4715;51.660;7.082;2022-10-18T06:57:01;4.50;;;3.60;;
5085;SDS011;4715;51.660;7.082;2022-10-18T06:59:23;5.00;;;3.63;;
5085;SDS011;4715;51.660;7.082;2022-10-18T07:01:45;3.90;;;3.43;;
5085;SDS011;4715;51.660;7.082;2022-10-18T07:04:07;4.23;;;3.83;;
5085;SDS011;4715;51.660;7.082;2022-10-18T07:06:30;3.67;;;3.47;;
5085;SDS011;4715;51.660;7.082;2022-10-18T07:08:52;3.50;;;3.20;;
5085;SDS011;4715;51.660;7.082;2022-10-18T07:11:16;3.33;;;3.10;;
5085;SDS011;4715;51.660;7.082;2022-10-18T07:13:39;3.90;;;2.87;;
5085;SDS011;4715;51.660;7.082;2022-10-18T07:16:04;3.47;;;3.17;;
5085;SDS011;4715;51.660;7.082;2022-10-18T07:18:28;3.30;;;3.10;;
5085;SDS011;4715;51.660;7.082;2022-10-18T07:20:50;4.00;;;3.00;;
5085;SDS011;4715;51.660;7.082;2022-10-18T07:23:13;3.50;;;3.20;;
5085;SDS011;4715;51.660;7.082;2022-10-18T07:25:35;4.70;;;3.83;;
5085;SDS011;4715;51.660;7.082;2022-10-18T07:27:57;5.23;;;4.27;;
5085;SDS011;4715;51.660;7.082;2022-10-18T07:30:18;5.03;;;4.00;;
5085;SDS011;4715;51.660;7.082;2022-10-18T07:32:40;4.80;;;4.40;;
5085;SDS011;4715;51.660;7.082;2022-10-18T07:35:03;4.90;;;4.40;;
5085;SDS011;4715;51.660;7.082;2022-10-18T07:37:26;4.90;;;4.13;;
5085;SDS011;4715;51.660;7.082;2022-10-18T07:39:49;5.80;;;4.60;;
5085;SDS011;4715;51.660;7.082;2022-10-18T07:42:11;5.57;;;4.77;;
5085;SDS011;4715;51.660;7.082;2022-10-18T07:44:33;6.30;;;4.53;;
5085;SDS011;4715;51.660;7.082;2022-10-18T07:46:54;6.43;;;5.50;;
5085;SDS011;4715;51.660;7.082;2022-10-18T07:49:16;7.33;;;5.00;;
5085;SDS011;4715;51.660;7.082;2022-10-18T07:51:38;9.10;;;6.00;;
5085;SDS011;4715;51.660;7.082;2022-10-18T07:54:00;9.57;;;6.30;;
5085;SDS011;4715;51.660;7.082;2022-10-18T07:56:23;8.60;;;5.93;;
5085;SDS011;4715;51.660;7.082;2022-10-18T07:58:46;8.13;;;5.13;;
5085;SDS011;4715;51.660;7.082;2022-10-18T08:01:10;5.50;;;4.97;;
5085;SDS011;4715;51.660;7.082;2022-10-18T08:03:33;5.83;;;5.23;;
5085;SDS011;4715;51.660;7.082;2022-10-18T08:05:55;4.53;;;4.10;;
5085;SDS011;4715;51.660;7.082;2022-10-18T08:08:17;6.20;;;5.20;;
5085;SDS011;4715;51.660;7.082;2022-10-18T08:10:39;7.73;;;5.40;;
5085;SDS011;4715;51.660;7.082;2022-10-18T08:13:02;5.53;;;4.93;;
5085;SDS011;4715;51.660;7.082;2022-10-18T08:15:24;6.27;;;5.17;;
5085;SDS011;4715;51.660;7.082;2022-10-18T08:17:46;10.37;;;6.30;;
5085;SDS011;4715;51.660;7.082;2022-10-18T08:20:08;9.37;;;5.83;;
5085;SDS011;4715;51.660;7.082;2022-10-18T08:22:31;6.47;;;5.03;;
5085;SDS011;4715;51.660;7.082;2022-10-18T08:24:52;8.13;;;5.13;;
5085;SDS011;4715;51.660;7.082;2022-10-18T08:27:14;8.80;;;5.93;;
5085;SDS011;4715;51.660;7.082;2022-10-18T08:29:37;8.67;;;5.80;;
5085;SDS011;4715;51.660;7.082;2022-10-18T08:31:59;10.93;;;7.10;;
5085;SDS011;4715;51.660;7.082;2022-10-18T08:34:22;9.30;;;6.07;;
5085;SDS011;4715;51.660;7.082;2022-10-18T08:36:44;7.50;;;6.60;;
5085;SDS011;4715;51.660;7.082;2022-10-18T08:39:06;10.53;;;7.60;;
5085;SDS011;4715;51.660;7.082;2022-10-18T08:41:39;8.00;;;6.13;;
5085;SDS011;4715;51.660;7.082;2022-10-18T08:44:10;8.77;;;6.70;;
5085;SDS011;4715;51.660;7.082;2022-10-18T08:46:41;6.27;;;5.20;;
5085;SDS011;4715;51.660;7.082;2022-10-18T08:49:06;7.63;;;6.80;;
5085;SDS011;4715;51.660;7.082;2022-10-18T08:51:38;9.37;;;6.77;;
5085;SDS011;4715;51.660;7.082;2022-10-18T08:54:06;10.37;;;7.47;;
5085;SDS011;4715;51.660;7.082;2022-10-18T08:56:33;8.20;;;6.60;;
5085;SDS011;4715;51.660;7.082;2022-10-18T08:58:57;7.70;;;6.60;;
5085;SDS011;4715;51.660;7.082;2022-10-18T09:01:24;11.10;;;7.80;;
5085;SDS011;4715;51.660;7.082;2022-10-18T09:06:47;10.63;;;7.17;;
5085;SDS011;4715;51.660;7.082;2022-10-18T09:09:20;10.93;;;7.60;;
5085;SDS011;4715;51.660;7.082;2022-10-18T09:11:50;8.00;;;6.97;;
5085;SDS011;4715;51.660;7.082;2022-10-18T09:14:26;7.50;;;6.40;;
5085;SDS011;4715;51.660;7.082;2022-10-18T09:17:10;7.00;;;6.23;;
5085;SDS011;4715;51.660;7.082;2022-10-18T09:19:44;13.63;;;6.50;;
5085;SDS011;4715;51.660;7.082;2022-10-18T09:22:14;7.60;;;6.90;;
5085;SDS011;4715;51.660;7.082;2022-10-18T09:24:39;8.47;;;6.80;;
5085;SDS011;4715;51.660;7.082;2022-10-18T09:27:09;7.43;;;6.50;;
5085;SDS011;4715;51.660;7.082;2022-10-18T09:29:56;9.00;;;6.90;;
5085;SDS011;4715;51.660;7.082;2022-10-18T09:32:25;16.07;;;10.03;;
5085;SDS011;4715;51.660;7.082;2022-10-18T09:34:55;9.00;;;7.50;;
5085;SDS011;4715;51.660;7.082;2022-10-18T09:37:19;8.63;;;7.67;;
5085;SDS011;4715;51.660;7.082;2022-10-18T09:39:43;9.50;;;7.63;;
5085;SDS011;4715;51.660;7.082;2022-10-18T09:42:10;11.40;;;7.83;;
5085;SDS011;4715;51.660;7.082;2022-10-18T09:44:36;10.13;;;7.23;;
5085;SDS011;4715;51.660;7.082;2022-10-18T09:47:00;12.77;;;9.33;;
5085;SDS011;4715;51.660;7.082;2022-10-18T09:49:28;10.17;;;8.43;;
5085;SDS011;4715;51.660;7.082;2022-10-18T09:51:54;9.80;;;8.50;;
5085;SDS011;4715;51.660;7.082;2022-10-18T09:54:23;11.27;;;7.30;;
5085;SDS011;4715;51.660;7.082;2022-10-18T09:56:51;12.90;;;8.57;;
5085;SDS011;4715;51.660;7.082;2022-10-18T09:59:28;14.00;;;7.80;;
5085;SDS011;4715;51.660;7.082;2022-10-18T10:01:54;14.17;;;10.30;;
5085;SDS011;4715;51.660;7.082;2022-10-18T10:04:16;15.93;;;10.60;;
5085;SDS011;4715;51.660;7.082;2022-10-18T10:06:38;16.00;;;10.97;;
5085;SDS011;4715;51.660;7.082;2022-10-18T10:09:14;16.53;;;11.50;;
5085;SDS011;4715;51.660;7.082;2022-10-18T10:11:38;16.70;;;10.87;;
5085;SDS011;4715;51.660;7.082;2022-10-18T10:14:11;18.57;;;9.93;;
5085;SDS011;4715;51.660;7.082;2022-10-18T10:16:41;16.20;;;10.23;;
5085;SDS011;4715;51.660;7.082;2022-10-18T10:19:07;12.00;;;9.33;;
5085;SDS011;4715;51.660;7.082;2022-10-18T10:21:40;14.17;;;7.30;;
5085;SDS011;4715;51.660;7.082;2022-10-18T10:24:02;9.67;;;8.50;;
5085;SDS011;4715;51.660;7.082;2022-10-18T10:26:28;9.77;;;7.07;;
5085;SDS011;4715;51.660;7.082;2022-10-18T10:28:53;10.87;;;8.70;;
5085;SDS011;4715;51.660;7.082;2022-10-18T10:31:16;11.30;;;8.37;;
5085;SDS011;4715;51.660;7.082;2022-10-18T10:33:46;8.03;;;6.43;;
5085;SDS011;4715;51.660;7.082;2022-10-18T10:36:18;10.50;;;7.57;;
5085;SDS011;4715;51.660;7.082;2022-10-18T10:38:41;12.00;;;8.40;;
5085;SDS011;4715;51.660;7.082;2022-10-18T10:41:03;14.53;;;9.73;;
5085;SDS011;4715;51.660;7.082;2022-10-18T10:43:27;11.60;;;8.13;;
5085;SDS011;4715;51.660;7.082;2022-10-18T10:45:56;13.57;;;9.43;;
5085;SDS011;4715;51.660;7.082;2022-10-18T10:48:22;15.17;;;9.80;;
5085;SDS011;4715;51.660;7.082;2022-10-18T10:50:50;19.93;;;11.77;;
5085;SDS011;4715;51.660;7.082;2022-10-18T10:53:20;13.63;;;9.20;;
5085;SDS011;4715;51.660;7.082;2022-10-18T10:55:51;15.13;;;9.60;;
5085;SDS011;4715;51.660;7.082;2022-10-18T10:58:15;10.80;;;9.13;;
5085;SDS011;4715;51.660;7.082;2022-10-18T11:00:41;10.73;;;8.53;;
5085;SDS011;4715;51.660;7.082;2022-10-18T11:03:05;12.67;;;8.70;;
5085;SDS011;4715;51.660;7.082;2022-10-18T11:05:32;10.67;;;8.90;;
5085;SDS011;4715;51.660;7.082;2022-10-18T11:08:12;10.03;;;6.80;;
5085;SDS011;4715;51.660;7.082;2022-10-18T11:10:38;7.30;;;6.40;;
5085;SDS011;4715;51.660;7.082;2022-10-18T11:13:20;7.90;;;6.50;;
5085;SDS011;4715;51.660;7.082;2022-10-18T11:15:51;9.10;;;6.90;;
5085;SDS011;4715;51.660;7.082;2022-10-18T11:18:21;8.80;;;5.57;;
5085;SDS011;4715;51.660;7.082;2022-10-18T11:20:47;5.53;;;5.00;;
5085;SDS011;4715;51.660;7.082;2022-10-18T11:23:13;8.03;;;5.83;;
5085;SDS011;4715;51.660;7.082;2022-10-18T11:25:47;10.60;;;5.77;;
5085;SDS011;4715;51.660;7.082;2022-10-18T11:28:29;5.60;;;4.77;;
5085;SDS011;4715;51.660;7.082;2022-10-18T11:31:05;6.70;;;6.00;;
5085;SDS011;4715;51.660;7.082;2022-10-18T11:33:38;8.53;;;5.57;;
5085;SDS011;4715;51.660;7.082;2022-10-18T11:36:09;6.93;;;5.20;;
5085;SDS011;4715;51.660;7.082;2022-10-18T11:38:39;7.00;;;5.67;;
5085;SDS011;4715;51.660;7.082;2022-10-18T11:41:13;5.33;;;4.83;;
5085;SDS011;4715;51.660;7.082;2022-10-18T11:43:43;12.30;;;6.03;;
5085;SDS011;4715;51.660;7.082;2022-10-18T11:46:12;10.10;;;4.57;;
5085;SDS011;4715;51.660;7.082;2022-10-18T11:48:50;7.70;;;4.40;;
5085;SDS011;4715;51.660;7.082;2022-10-18T11:51:26;6.53;;;5.60;;
5085;SDS011;4715;51.660;7.082;2022-10-18T11:54:00;6.70;;;5.00;;
5085;SDS011;4715;51.660;7.082;2022-10-18T11:56:36;4.17;;;3.77;;
5085;SDS011;4715;51.660;7.082;2022-10-18T11:59:08;5.60;;;4.17;;
5085;SDS011;4715;51.660;7.082;2022-10-18T12:01:50;9.10;;;4.90;;
5085;SDS011;4715;51.660;7.082;2022-10-18T12:04:19;6.57;;;4.23;;
5085;SDS011;4715;51.660;7.082;2022-10-18T12:06:44;3.87;;;3.40;;
5085;SDS011;4715;51.660;7.082;2022-10-18T12:09:11;5.77;;;3.73;;
5085;SDS011;4715;51.660;7.082;2022-10-18T12:11:40;5.07;;;3.73;;
5085;SDS011;4715;51.660;7.082;2022-10-18T12:14:13;6.10;;;3.40;;
5085;SDS011;4715;51.660;7.082;2022-10-18T12:16:45;4.73;;;3.70;;
5085;SDS011;4715;51.660;7.082;2022-10-18T12:19:13;6.97;;;4.40;;
5085;SDS011;4715;51.660;7.082;2022-10-18T12:21:38;4.83;;;3.33;;
5085;SDS011;4715;51.660;7.082;2022-10-18T12:24:04;6.83;;;3.60;;
5085;SDS011;4715;51.660;7.082;2022-10-18T12:26:30;7.23;;;3.57;;
5085;SDS011;4715;51.660;7.082;2022-10-18T12:28:59;5.10;;;3.87;;
5085;SDS011;4715;51.660;7.082;2022-10-18T12:31:30;4.10;;;2.77;;
5085;SDS011;4715;51.660;7.082;2022-10-18T12:33:57;6.10;;;3.40;;
5085;SDS011;4715;51.660;7.082;2022-10-18T12:36:31;5.10;;;2.90;;
5085;SDS011;4715;51.660;7.082;2022-10-18T12:39:17;7.30;;;3.03;;
5085;SDS011;4715;51.660;7.082;2022-10-18T12:41:47;7.40;;;2.87;;
5085;SDS011;4715;51.660;7.082;2022-10-18T12:44:18;2.90;;;2.43;;
5085;SDS011;4715;51.660;7.082;2022-10-18T12:46:42;5.67;;;2.77;;
5085;SDS011;4715;51.660;7.082;2022-10-18T12:49:11;8.73;;;3.27;;
5085;SDS011;4715;51.660;7.082;2022-10-18T12:51:44;4.03;;;2.70;;
5085;SDS011;4715;51.660;7.082;2022-10-18T12:54:15;4.33;;;2.37;;
5085;SDS011;4715;51.660;7.082;2022-10-18T12:56:39;7.03;;;2.53;;
5085;SDS011;4715;51.660;7.082;2022-10-18T13:02:16;7.97;;;3.00;;
5085;SDS011;4715;51.660;7.082;2022-10-18T13:05:07;22.00;;;3.53;;
5085;SDS011;4715;51.660;7.082;2022-10-18T13:08:37;4.33;;;2.10;;
5085;SDS011;4715;51.660;7.082;2022-10-18T13:11:13;2.23;;;2.00;;
5085;SDS011;4715;51.660;7.082;2022-10-18T13:17:05;4.43;;;2.27;;
5085;SDS011;4715;51.660;7.082;2022-10-18T13:19:37;2.93;;;1.57;;
5085;SDS011;4715;51.660;7.082;2022-10-18T13:22:13;5.10;;;2.00;;
5085;SDS011;4715;51.660;7.082;2022-10-18T13:24:53;4.40;;;1.67;;
5085;SDS011;4715;51.660;7.082;2022-10-18T13:27:30;4.20;;;1.77;;
5085;SDS011;4715;51.660;7.082;2022-10-18T13:30:14;1.87;;;1.43;;
5085;SDS011;4715;51.660;7.082;2022-10-18T13:33:07;4.47;;;1.40;;
5085;SDS011;4715;51.660;7.082;2022-10-18T13:35:50;3.13;;;1.40;;
5085;SDS011;4715;51.660;7.082;2022-10-18T13:38:22;4.60;;;2.00;;
5085;SDS011;4715;51.660;7.082;2022-10-18T13:41:08;2.37;;;1.60;;
5085;SDS011;4715;51.660;7.082;2022-10-18T13:46:16;1.93;;;1.40;;
5085;SDS011;4715;51.660;7.082;2022-10-18T13:48:45;1.30;;;1.20;;
5085;SDS011;4715;51.660;7.082;2022-10-18T13:51:27;1.50;;;1.40;;
5085;SDS011;4715;51.660;7.082;2022-10-18T13:53:57;2.33;;;1.50;;
5085;SDS011;4715;51.660;7.082;2022-10-18T13:56:37;1.30;;;1.17;;
5085;SDS011;4715;51.660;7.082;2022-10-18T13:59:14;1.50;;;1.40;;
5085;SDS011;4715;51.660;7.082;2022-10-18T14:01:52;1.40;;;1.30;;
5085;SDS011;4715;51.660;7.082;2022-10-18T14:04:33;1.60;;;1.37;;
5085;SDS011;4715;51.660;7.082;2022-10-18T14:07:02;1.70;;;1.30;;
5085;SDS011;4715;51.660;7.082;2022-10-18T14:09:27;2.00;;;1.40;;
5085;SDS011;4715;51.660;7.082;2022-10-18T14:11:54;1.40;;;1.30;;
5085;SDS011;4715;51.660;7.082;2022-10-18T14:14:23;2.93;;;1.10;;
5085;SDS011;4715;51.660;7.082;2022-10-18T14:16:53;1.30;;;1.13;;
5085;SDS011;4715;51.660;7.082;2022-10-18T14:19:25;1.70;;;1.27;;
5085;SDS011;4715;51.660;7.082;2022-10-18T14:21:52;1.20;;;1.10;;
5085;SDS011;4715;51.660;7.082;2022-10-18T14:24:19;0.90;;;0.90;;
5085;SDS011;4715;51.660;7.082;2022-10-18T14:26:43;1.30;;;1.20;;
5085;SDS011;4715;51.660;7.082;2022-10-18T14:29:14;1.30;;;1.20;;
5085;SDS011;4715;51.660;7.082;2022-10-18T14:31:38;1.23;;;1.13;;
5085;SDS011;4715;51.660;7.082;2022-10-18T14:34:13;1.10;;;1.10;;
5085;SDS011;4715;51.660;7.082;2022-10-18T14:36:36;2.93;;;1.60;;
5085;SDS011;4715;51.660;7.082;2022-10-18T14:39:02;1.50;;;1.20;;
5085;SDS011;4715;51.660;7.082;2022-10-18T14:41:26;1.27;;;1.10;;
5085;SDS011;4715;51.660;7.082;2022-10-18T14:43:48;2.20;;;1.00;;
5085;SDS011;4715;51.660;7.082;2022-10-18T14:46:17;4.00;;;1.33;;
5085;SDS011;4715;51.660;7.082;2022-10-18T14:48:50;2.93;;;1.23;;
5085;SDS011;4715;51.660;7.082;2022-10-18T14:51:12;1.30;;;1.00;;
5085;SDS011;4715;51.660;7.082;2022-10-18T14:53:36;1.60;;;1.03;;
5085;SDS011;4715;51.660;7.082;2022-10-18T14:55:59;1.30;;;1.20;;
5085;SDS011;4715;51.660;7.082;2022-10-18T14:58:23;1.20;;;1.10;;
5085;SDS011;4715;51.660;7.082;2022-10-18T15:00:45;1.23;;;1.00;;
5085;SDS011;4715;51.660;7.082;2022-10-18T15:03:11;2.43;;;1.10;;
5085;SDS011;4715;51.660;7.082;2022-10-18T15:05:34;0.83;;;0.80;;
5085;SDS011;4715;51.660;7.082;2022-10-18T15:07:56;1.20;;;1.10;;
5085;SDS011;4715;51.660;7.082;2022-10-18T15:10:20;1.60;;;1.27;;
5085;SDS011;4715;51.660;7.082;2022-10-18T15:12:44;1.97;;;1.30;;
5085;SDS011;4715;51.660;7.082;2022-10-18T15:15:10;1.97;;;1.77;;
5085;SDS011;4715;51.660;7.082;2022-10-18T15:17:39;1.17;;;1.07;;
5085;SDS011;4715;51.660;7.082;2022-10-18T15:20:14;0.90;;;0.90;;